Time;durP1;ratioP1;P1;durP2;ratioP2;P2;SDS_P1;SDS_P2;PMS_P1;PMS_P2;Temp;Humidity;BMP_temperature;BMP_pressure;BME280_temperature;BME280_humidity;BME280_pressure;Samples;Min_cycle;Max_cycle;Signal;HPM_P1;HPM_P2
2023/01/10 00:00:33;;;;;;;1.52;0.70;;;6.20;99.90;;;;;;5110142;27;20055;-74
2023/01/10 00:03:00;;;;;;;3.03;0.40;;;6.10;99.90;;;;;;5073126;28;20111;-74
2023/01/10 00:05:26;;;;;;;0.65;0.25;;;6.10;99.90;;;;;;5075299;28;20036;-74
2023/01/10 00:07:52;;;;;;;2.55;0.80;;;6.10;99.90;;;;;;5074454;28;20055;-74
2023/01/10 00:10:17;;;;;;;0.65;0.50;;;6.10;99.90;;;;;;5074694;28;20048;-74
2023/01/10 00:15:30;;;;;;;0.80;0.30;;;6.10;99.90;;;;;;5075865;28;20044;-74
2023/01/10 00:17:55;;;;;;;1.85;0.43;;;6.00;99.90;;;;;;5075617;28;20036;-74
2023/01/10 00:20:21;;;;;;;2.75;0.57;;;6.00;99.90;;;;;;5076776;28;20036;-74
2023/01/10 00:22:48;;;;;;;0.55;0.45;;;6.00;99.90;;;;;;5076579;28;20039;-74
2023/01/10 00:25:14;;;;;;;2.60;0.80;;;6.00;99.90;;;;;;5079251;28;20040;-74
2023/01/10 00:27:40;;;;;;;1.48;0.73;;;6.00;99.90;;;;;;5059923;28;20044;-74
2023/01/10 00:30:12;;;;;;;4.57;0.47;;;5.90;99.90;;;;;;5078925;28;20577;-73
2023/01/10 00:32:43;;;;;;;2.10;0.50;;;5.90;99.90;;;;;;5080494;28;20127;-74
2023/01/10 00:35:10;;;;;;;0.95;0.50;;;5.90;99.90;;;;;;5079518;28;20508;-74
2023/01/10 00:37:37;;;;;;;0.57;0.30;;;5.90;99.90;;;;;;5077555;28;20056;-74
2023/01/10 00:40:06;;;;;;;2.20;0.60;;;5.90;99.90;;;;;;5052452;28;20405;-74
2023/01/10 00:45:18;;;;;;;3.88;0.85;;;5.90;99.90;;;;;;5074341;28;20130;-74
2023/01/10 00:47:44;;;;;;;3.22;0.55;;;5.90;99.90;;;;;;5058592;28;20040;-74
2023/01/10 00:50:10;;;;;;;2.35;0.70;;;5.90;99.90;;;;;;5069474;28;20113;-74
2023/01/10 00:52:36;;;;;;;1.73;0.60;;;5.90;99.90;;;;;;5059052;28;20048;-74
2023/01/10 00:55:02;;;;;;;1.52;0.47;;;6.00;99.90;;;;;;5074443;28;20119;-74
2023/01/10 00:57:27;;;;;;;0.90;0.40;;;6.00;99.90;;;;;;5063977;28;20495;-74
2023/01/10 00:59:53;;;;;;;5.25;0.65;;;6.00;99.90;;;;;;5073203;28;20480;-74
2023/01/10 01:02:18;;;;;;;0.57;0.30;;;6.00;99.90;;;;;;5075475;28;20032;-74
2023/01/10 01:04:44;;;;;;;1.60;0.60;;;6.00;99.90;;;;;;5071204;28;20478;-74
2023/01/10 01:07:10;;;;;;;2.65;0.80;;;6.00;99.90;;;;;;5062861;28;20135;-74
2023/01/10 01:10:25;;;;;;;2.80;1.20;;;6.00;99.90;;;;;;5078152;28;20059;-74
2023/01/10 01:12:21;;;;;;;5.05;0.70;;;6.10;99.90;;;;;;5077793;28;20799;-74
2023/01/10 01:14:46;;;;;;;2.28;0.52;;;6.10;99.90;;;;;;5071916;28;20039;-74
2023/01/10 01:17:12;;;;;;;4.28;0.60;;;6.10;99.90;;;;;;5073062;28;20051;-74
2023/01/10 01:19:37;;;;;;;1.95;0.50;;;6.10;99.90;;;;;;5053556;28;20127;-74
2023/01/10 01:22:03;;;;;;;1.25;0.80;;;6.10;99.90;;;;;;5073276;28;20033;-74
2023/01/10 01:24:29;;;;;;;3.80;0.52;;;6.10;99.90;;;;;;5056597;28;20067;-74
2023/01/10 01:26:54;;;;;;;1.02;0.57;;;6.10;99.90;;;;;;5108295;27;20048;-74
2023/01/10 01:29:20;;;;;;;2.10;0.55;;;6.10;99.90;;;;;;5074269;28;20033;-74
2023/01/10 01:31:45;;;;;;;2.13;0.80;;;6.10;99.90;;;;;;5077705;28;20044;-74
2023/01/10 01:34:11;;;;;;;2.97;1.08;;;6.10;99.90;;;;;;5074629;28;20028;-74
2023/01/10 01:36:36;;;;;;;4.47;0.85;;;6.20;99.90;;;;;;5075410;28;20158;-74
2023/01/10 01:39:02;;;;;;;5.03;1.10;;;6.30;99.90;;;;;;5068803;28;20033;-74
2023/01/10 01:44:17;;;;;;;4.00;0.80;;;6.30;99.90;;;;;;5074418;28;20205;-74
2023/01/10 01:46:50;;;;;;;6.88;0.68;;;6.30;99.90;;;;;;5074955;28;20036;-74
2023/01/10 01:49:22;;;;;;;0.35;0.20;;;6.30;99.90;;;;;;5065931;28;20127;-74
2023/01/10 01:51:52;;;;;;;1.48;0.80;;;6.30;99.90;;;;;;5077315;28;20040;-74
2023/01/10 01:54:18;;;;;;;2.03;0.60;;;6.20;99.90;;;;;;5073147;28;20036;-74
2023/01/10 01:56:53;;;;;;;2.35;0.70;;;6.20;99.90;;;;;;5070439;28;20036;-74
2023/01/10 01:59:29;;;;;;;3.28;0.73;;;6.20;99.90;;;;;;5079230;28;20044;-74
2023/01/10 02:01:59;;;;;;;3.97;1.08;;;6.20;99.90;;;;;;5076954;28;20124;-74
2023/01/10 02:04:47;;;;;;;2.20;0.63;;;6.10;99.90;;;;;;5056636;28;20146;-74
2023/01/10 02:07:13;;;;;;;1.98;0.52;;;6.10;99.90;;;;;;5076186;28;20047;-74
2023/01/10 02:09:51;;;;;;;4.90;0.65;;;6.10;99.90;;;;;;5059211;28;20045;-74
2023/01/10 02:12:18;;;;;;;3.08;0.73;;;6.10;99.90;;;;;;5061547;28;20041;-74
2023/01/10 02:14:47;;;;;;;1.05;0.30;;;6.10;99.90;;;;;;5076232;28;20043;-74
2023/01/10 02:17:12;;;;;;;1.90;0.60;;;6.10;99.90;;;;;;5080221;28;20125;-74
2023/01/10 02:19:57;;;;;;;3.08;0.70;;;6.00;99.90;;;;;;5057485;28;20084;-74
2023/01/10 02:22:37;;;;;;;2.67;0.80;;;6.00;99.90;;;;;;5073564;28;20485;-74
2023/01/10 02:25:41;;;;;;;3.38;0.60;;;6.00;99.90;;;;;;5076755;28;20077;-74
2023/01/10 02:28:30;;;;;;;1.90;0.85;;;6.00;99.90;;;;;;5074771;28;20028;-74
2023/01/10 02:31:18;;;;;;;2.00;0.77;;;6.00;99.90;;;;;;5074070;28;20044;-74
2023/01/10 02:33:48;;;;;;;8.00;0.65;;;6.00;99.90;;;;;;5078406;28;20074;-74
2023/01/10 02:36:14;;;;;;;1.40;0.63;;;6.00;99.90;;;;;;5076768;28;20043;-74
2023/01/10 02:38:54;;;;;;;2.75;0.55;;;6.00;99.90;;;;;;5059919;28;20044;-74
2023/01/10 02:41:48;;;;;;;3.05;0.60;;;6.00;99.90;;;;;;5079213;28;20409;-74
2023/01/10 02:44:25;;;;;;;4.95;1.17;;;6.00;99.90;;;;;;5075587;28;20119;-74
2023/01/10 02:46:51;;;;;;;2.03;0.75;;;6.00;99.90;;;;;;5080583;28;20033;-74
2023/01/10 02:49:18;;;;;;;2.42;0.55;;;6.00;99.90;;;;;;5072626;28;20044;-74
2023/01/10 02:51:43;;;;;;;0.77;0.40;;;6.00;99.90;;;;;;5071862;28;20040;-74
2023/01/10 02:54:26;;;;;;;4.47;0.90;;;6.00;99.90;;;;;;5084133;28;20463;-74
2023/01/10 02:57:21;;;;;;;3.70;0.85;;;6.10;99.90;;;;;;5082425;28;20123;-74
2023/01/10 03:00:21;;;;;;;5.85;0.80;;;6.10;99.90;;;;;;5073186;28;20040;-74
2023/01/10 03:03:07;;;;;;;2.58;0.55;;;6.10;99.90;;;;;;5073251;28;20555;-74
2023/01/10 03:05:56;;;;;;;1.60;0.60;;;6.10;99.90;;;;;;5077187;28;20678;-74
2023/01/10 03:09:01;;;;;;;1.98;0.80;;;6.10;99.90;;;;;;5093170;28;20410;-74
2023/01/10 03:11:41;;;;;;;0.43;0.30;;;6.10;99.90;;;;;;5071390;28;20064;-74
2023/01/10 03:14:21;;;;;;;0.73;0.38;;;6.20;99.90;;;;;;5078650;28;20339;-74
2023/01/10 03:16:53;;;;;;;2.03;1.17;;;6.10;99.90;;;;;;5077265;28;20127;-74
2023/01/10 03:19:22;;;;;;;0.55;0.43;;;6.10;99.90;;;;;;5076335;28;20040;-74
2023/01/10 03:21:52;;;;;;;2.40;0.88;;;6.10;99.90;;;;;;5080621;28;20085;-74
2023/01/10 03:24:26;;;;;;;2.25;0.60;;;6.10;99.90;;;;;;5058761;28;20040;-74
2023/01/10 03:26:57;;;;;;;2.35;0.57;;;6.10;99.90;;;;;;5074969;28;20029;-74
2023/01/10 03:29:38;;;;;;;0.98;0.50;;;6.10;99.90;;;;;;5067898;28;20049;-74
2023/01/10 03:32:06;;;;;;;2.55;0.63;;;6.10;99.90;;;;;;5071645;28;20154;-74
2023/01/10 03:34:32;;;;;;;3.88;0.57;;;6.10;99.90;;;;;;5070198;28;20706;-74
2023/01/10 03:37:32;;;;;;;7.13;0.85;;;6.10;99.90;;;;;;5076436;28;20051;-74
2023/01/10 03:40:07;;;;;;;0.73;0.40;;;6.10;99.90;;;;;;5110466;27;20485;-74
2023/01/10 03:45:54;;;;;;;9.10;1.85;;;6.10;99.90;;;;;;5081590;28;20032;-74
2023/01/10 03:48:25;;;;;;;2.47;0.50;;;6.10;99.90;;;;;;5080170;28;20523;-74
2023/01/10 03:50:51;;;;;;;0.80;0.32;;;6.10;99.90;;;;;;5079225;28;20044;-74
2023/01/10 03:53:17;;;;;;;0.70;0.52;;;6.10;99.90;;;;;;5057234;28;20479;-74
2023/01/10 03:55:44;;;;;;;2.78;0.52;;;6.20;99.90;;;;;;5072354;28;20448;-74
2023/01/10 03:58:09;;;;;;;3.10;0.93;;;6.20;99.90;;;;;;5074933;28;20043;-74
2023/01/10 04:00:35;;;;;;;5.25;1.50;;;6.20;99.90;;;;;;5056111;28;20032;-74
2023/01/10 04:03:01;;;;;;;2.58;0.85;;;6.30;99.90;;;;;;5074568;28;20102;-74
2023/01/10 04:05:27;;;;;;;4.85;0.80;;;6.30;99.90;;;;;;5077565;28;20119;-74
2023/01/10 04:07:52;;;;;;;1.08;0.50;;;6.30;99.90;;;;;;5076892;28;20062;-74
2023/01/10 04:10:19;;;;;;;1.95;0.50;;;6.30;99.90;;;;;;5074892;28;20512;-74
2023/01/10 04:12:45;;;;;;;4.07;0.82;;;6.40;99.90;;;;;;5076882;28;20044;-74
2023/01/10 04:15:11;;;;;;;5.22;0.80;;;6.40;99.90;;;;;;5074907;28;20033;-74
2023/01/10 04:17:36;;;;;;;3.88;1.00;;;6.40;99.90;;;;;;5058024;28;20044;-74
2023/01/10 04:20:02;;;;;;;2.65;0.50;;;6.40;99.90;;;;;;5052571;28;20036;-74
2023/01/10 04:22:28;;;;;;;2.03;0.55;;;6.30;99.90;;;;;;5068817;28;20039;-74
2023/01/10 04:24:53;;;;;;;0.50;0.32;;;6.30;99.90;;;;;;5074607;28;20293;-74
2023/01/10 04:27:19;;;;;;;2.88;0.77;;;6.30;99.90;;;;;;5075427;28;20068;-74
2023/01/10 04:29:45;;;;;;;1.77;0.50;;;6.30;99.90;;;;;;5078752;28;20040;-74
2023/01/10 04:32:11;;;;;;;2.65;0.60;;;6.20;99.90;;;;;;5070058;28;20044;-74
2023/01/10 04:34:37;;;;;;;2.40;0.70;;;6.20;99.90;;;;;;5076292;28;20043;-74
2023/01/10 04:37:02;;;;;;;3.38;1.13;;;6.20;99.90;;;;;;5070748;28;20558;-74
2023/01/10 04:39:28;;;;;;;1.63;0.65;;;6.20;99.90;;;;;;5077417;28;20040;-74
2023/01/10 04:41:53;;;;;;;0.55;0.35;;;6.20;99.90;;;;;;5079786;28;20036;-74
2023/01/10 04:44:19;;;;;;;4.47;1.55;;;6.20;99.90;;;;;;5054685;28;20036;-74
2023/01/10 04:46:45;;;;;;;2.75;0.60;;;6.20;99.90;;;;;;5071203;28;20071;-74
2023/01/10 04:49:10;;;;;;;2.17;0.73;;;6.20;99.90;;;;;;5073632;28;20441;-74
2023/01/10 04:51:36;;;;;;;1.38;0.75;;;6.20;99.90;;;;;;5071804;28;20051;-74
2023/01/10 04:54:02;;;;;;;5.18;0.80;;;6.20;99.90;;;;;;5070470;28;20123;-74
2023/01/10 04:56:28;;;;;;;2.53;0.88;;;6.20;99.90;;;;;;5072982;28;20040;-74
2023/01/10 04:58:54;;;;;;;3.10;0.82;;;6.30;99.90;;;;;;5078416;28;20878;-74
2023/01/10 05:01:21;;;;;;;3.40;0.60;;;6.30;99.90;;;;;;5073292;28;20036;-74
2023/01/10 05:03:52;;;;;;;3.63;1.25;;;6.30;99.90;;;;;;5073919;28;20398;-74
2023/01/10 05:06:19;;;;;;;2.05;0.60;;;6.30;99.90;;;;;;5074331;28;20620;-74
2023/01/10 05:08:45;;;;;;;4.50;0.90;;;6.30;99.90;;;;;;5074331;28;20044;-74
2023/01/10 05:11:11;;;;;;;1.42;0.73;;;6.30;99.90;;;;;;5078545;28;20631;-74
2023/01/10 05:13:37;;;;;;;1.67;0.90;;;6.30;99.90;;;;;;5052335;28;20090;-74
2023/01/10 05:16:03;;;;;;;1.55;0.50;;;6.30;99.90;;;;;;5051402;28;20782;-74
2023/01/10 05:18:29;;;;;;;3.38;0.70;;;6.30;99.90;;;;;;5071581;28;20047;-74
2023/01/10 05:21:05;;;;;;;2.50;0.75;;;6.40;99.90;;;;;;5078690;28;20111;-74
2023/01/10 05:23:31;;;;;;;2.10;1.15;;;6.40;99.90;;;;;;5080334;28;20039;-74
2023/01/10 05:25:57;;;;;;;4.03;0.63;;;6.40;99.90;;;;;;5073534;28;20383;-74
2023/01/10 05:28:23;;;;;;;6.72;1.75;;;6.40;99.90;;;;;;5077554;28;20104;-74
2023/01/10 05:30:49;;;;;;;5.57;0.70;;;6.30;99.90;;;;;;5050557;28;20079;-74
2023/01/10 05:33:14;;;;;;;6.88;1.00;;;6.40;99.90;;;;;;5070390;28;20040;-74
2023/01/10 05:35:40;;;;;;;0.95;0.43;;;6.30;99.90;;;;;;5071712;28;20540;-74
2023/01/10 05:38:05;;;;;;;3.80;0.73;;;6.40;99.90;;;;;;5073351;28;20570;-74
2023/01/10 05:40:31;;;;;;;1.75;0.40;;;6.40;99.90;;;;;;5071972;28;20044;-74
2023/01/10 05:42:56;;;;;;;1.35;0.80;;;6.40;99.90;;;;;;5051663;28;20060;-74
2023/01/10 05:45:22;;;;;;;3.83;0.95;;;6.40;99.90;;;;;;5069820;28;20367;-74
2023/01/10 05:47:48;;;;;;;3.65;0.43;;;6.40;99.90;;;;;;5069496;28;20043;-74
2023/01/10 05:50:14;;;;;;;1.15;0.70;;;6.40;99.90;;;;;;5075985;28;20093;-74
2023/01/10 05:52:39;;;;;;;3.17;0.85;;;6.40;99.90;;;;;;5076595;28;20040;-74
2023/01/10 05:55:05;;;;;;;2.10;0.95;;;6.50;99.90;;;;;;5055947;28;20032;-74
2023/01/10 05:57:31;;;;;;;6.63;0.93;;;6.50;99.90;;;;;;5075532;28;20057;-74
2023/01/10 05:59:57;;;;;;;2.63;0.50;;;6.50;99.90;;;;;;5074119;28;20040;-74
2023/01/10 06:02:25;;;;;;;2.42;0.60;;;6.50;99.90;;;;;;5064562;28;20440;-74
2023/01/10 06:04:50;;;;;;;2.95;0.90;;;6.50;99.90;;;;;;5075834;28;20036;-74
2023/01/10 06:07:16;;;;;;;1.85;0.50;;;6.60;99.90;;;;;;5069282;28;20048;-74
2023/01/10 06:09:42;;;;;;;1.55;0.80;;;6.60;99.90;;;;;;5069057;28;20045;-74
2023/01/10 06:12:08;;;;;;;3.70;1.25;;;6.60;99.90;;;;;;5047934;28;20038;-74
2023/01/10 06:14:33;;;;;;;3.58;0.95;;;6.60;99.90;;;;;;5072473;28;20117;-74
2023/01/10 06:16:59;;;;;;;4.90;0.65;;;6.60;99.90;;;;;;5067648;28;20057;-74
2023/01/10 06:19:24;;;;;;;3.90;1.10;;;6.60;99.90;;;;;;5074151;28;20490;-74
2023/01/10 06:21:50;;;;;;;1.40;0.95;;;6.60;99.90;;;;;;5079262;28;20473;-74
2023/01/10 06:24:15;;;;;;;2.60;0.70;;;6.60;99.90;;;;;;5074196;28;20047;-74
2023/01/10 06:26:41;;;;;;;3.60;0.68;;;6.60;99.90;;;;;;5075012;28;20038;-74
2023/01/10 06:29:07;;;;;;;2.67;0.90;;;6.60;99.90;;;;;;5075488;28;20443;-74
2023/01/10 06:31:32;;;;;;;4.82;1.27;;;6.60;99.90;;;;;;5059595;28;20047;-74
2023/01/10 06:33:58;;;;;;;2.55;0.70;;;6.60;99.90;;;;;;5077629;28;20090;-74
2023/01/10 06:36:23;;;;;;;2.75;0.63;;;6.60;99.90;;;;;;5061529;28;20284;-74
2023/01/10 06:38:49;;;;;;;3.20;0.88;;;6.60;99.90;;;;;;5051918;28;20041;-74
2023/01/10 06:41:15;;;;;;;3.85;0.73;;;6.60;99.90;;;;;;5079298;28;20309;-74
2023/01/10 06:43:45;;;;;;;2.05;0.98;;;6.50;99.90;;;;;;5071671;28;20029;-74
2023/01/10 06:46:12;;;;;;;1.23;0.80;;;6.50;99.90;;;;;;5089455;27;20536;-73
2023/01/10 06:48:38;;;;;;;3.33;0.98;;;6.50;99.90;;;;;;5076852;28;20032;-74
2023/01/10 06:51:04;;;;;;;4.60;0.80;;;6.50;99.90;;;;;;5052133;28;20051;-74
2023/01/10 06:53:31;;;;;;;5.20;0.70;;;6.40;99.90;;;;;;5077519;28;20089;-73
2023/01/10 06:55:57;;;;;;;3.92;0.90;;;6.40;99.90;;;;;;5073553;28;20036;-74
2023/01/10 06:58:22;;;;;;;4.35;0.90;;;6.40;99.90;;;;;;5071738;28;20968;-74
2023/01/10 07:00:48;;;;;;;1.48;0.82;;;6.40;99.90;;;;;;5072967;28;20117;-74
2023/01/10 07:03:14;;;;;;;7.25;1.17;;;6.40;99.90;;;;;;5071438;28;20486;-74
2023/01/10 07:05:40;;;;;;;2.42;0.98;;;6.40;99.90;;;;;;5076540;28;20052;-74
2023/01/10 07:08:06;;;;;;;7.07;1.20;;;6.40;99.90;;;;;;5053854;28;20044;-74
2023/01/10 07:10:31;;;;;;;7.55;1.35;;;6.30;99.90;;;;;;5082154;28;20508;-74
2023/01/10 07:12:58;;;;;;;3.97;0.90;;;6.40;99.90;;;;;;5072495;28;20040;-74
2023/01/10 07:15:25;;;;;;;4.97;1.08;;;6.50;99.90;;;;;;5078537;28;20032;-74
2023/01/10 07:17:51;;;;;;;3.90;1.35;;;6.50;99.90;;;;;;5064301;28;20039;-74
2023/01/10 07:20:17;;;;;;;5.13;1.15;;;6.50;99.90;;;;;;5084908;28;20048;-74
2023/01/10 07:22:43;;;;;;;1.95;1.17;;;6.50;99.90;;;;;;5062592;28;20043;-74
2023/01/10 07:25:09;;;;;;;3.05;1.27;;;6.50;99.90;;;;;;5081223;28;20032;-75
2023/01/10 07:27:35;;;;;;;2.53;1.08;;;6.60;99.90;;;;;;5070766;28;20044;-74
2023/01/10 07:30:00;;;;;;;3.83;1.20;;;6.50;99.90;;;;;;5058693;28;20122;-74
2023/01/10 07:32:26;;;;;;;3.30;0.70;;;6.60;99.90;;;;;;5059393;28;20085;-76
2023/01/10 07:34:52;;;;;;;2.65;0.98;;;6.60;99.90;;;;;;5059691;28;20086;-74
2023/01/10 07:37:17;;;;;;;2.70;0.80;;;6.60;99.90;;;;;;5075448;28;20040;-74
2023/01/10 07:39:43;;;;;;;4.25;1.02;;;6.60;99.90;;;;;;5083628;28;20097;-74
2023/01/10 07:42:09;;;;;;;1.70;0.98;;;6.60;99.90;;;;;;5061718;28;20032;-75
2023/01/10 07:44:34;;;;;;;3.72;1.15;;;6.60;99.90;;;;;;5080336;28;20179;-74
2023/01/10 07:47:00;;;;;;;2.88;1.13;;;6.60;99.90;;;;;;5070281;28;20032;-74
2023/01/10 07:49:26;;;;;;;2.95;0.90;;;6.60;99.90;;;;;;5077295;28;20047;-74
2023/01/10 07:51:51;;;;;;;2.08;0.95;;;6.60;99.90;;;;;;5071180;28;20552;-74
2023/01/10 07:54:17;;;;;;;1.55;0.68;;;6.60;99.90;;;;;;5077752;28;20032;-74
2023/01/10 07:56:43;;;;;;;2.25;0.80;;;6.60;99.90;;;;;;5068952;28;20036;-73
2023/01/10 07:59:09;;;;;;;1.70;0.65;;;6.60;99.90;;;;;;5071730;28;20101;-74
2023/01/10 08:01:34;;;;;;;5.20;0.98;;;6.60;99.90;;;;;;5075942;28;20032;-74
2023/01/10 08:04:00;;;;;;;6.90;0.90;;;6.60;99.90;;;;;;5081478;28;20098;-74
2023/01/10 08:06:26;;;;;;;3.58;0.85;;;6.60;99.90;;;;;;5070520;28;20040;-74
2023/01/10 08:08:51;;;;;;;4.72;0.95;;;6.60;99.90;;;;;;5079273;28;20038;-74
2023/01/10 08:11:17;;;;;;;5.10;1.20;;;6.60;99.90;;;;;;5080502;28;20118;-74
2023/01/10 08:13:42;;;;;;;3.88;1.08;;;6.60;99.90;;;;;;5082546;28;20087;-75
2023/01/10 08:16:08;;;;;;;3.88;1.27;;;6.60;99.90;;;;;;5054151;28;20564;-75
2023/01/10 08:18:34;;;;;;;1.83;0.80;;;6.60;99.90;;;;;;5076651;28;20051;-74
2023/01/10 08:21:00;;;;;;;3.70;1.27;;;6.60;99.90;;;;;;5051781;28;20043;-74
2023/01/10 08:23:25;;;;;;;3.72;1.25;;;6.60;99.90;;;;;;5072172;28;20504;-74
2023/01/10 08:25:51;;;;;;;1.10;0.60;;;6.60;99.90;;;;;;5077861;28;20674;-74
2023/01/10 08:28:17;;;;;;;4.20;0.73;;;6.60;99.90;;;;;;5081672;28;20082;-74
2023/01/10 08:30:43;;;;;;;3.33;1.17;;;6.60;99.90;;;;;;5112857;27;20393;-74
2023/01/10 08:33:10;;;;;;;5.25;1.05;;;6.60;99.90;;;;;;5082925;28;20556;-74
2023/01/10 08:35:37;;;;;;;4.05;1.15;;;6.60;99.90;;;;;;5069918;28;20035;-74
2023/01/10 08:38:03;;;;;;;5.80;1.23;;;6.60;99.90;;;;;;5069867;28;20241;-74
2023/01/10 08:40:29;;;;;;;3.67;1.33;;;6.70;99.90;;;;;;5064541;28;20032;-74
2023/01/10 08:42:59;;;;;;;2.08;0.85;;;6.70;99.90;;;;;;5077593;28;20127;-74
2023/01/10 08:45:25;;;;;;;2.63;0.85;;;6.70;99.90;;;;;;5052096;28;20056;-73
2023/01/10 08:47:51;;;;;;;6.43;1.10;;;6.70;99.90;;;;;;5078154;28;20120;-74
2023/01/10 08:50:17;;;;;;;2.55;1.00;;;6.70;99.90;;;;;;5079708;28;20485;-74
2023/01/10 08:52:43;;;;;;;1.48;0.60;;;6.70;99.90;;;;;;5080569;28;20038;-74
2023/01/10 08:55:09;;;;;;;2.20;0.77;;;6.70;99.90;;;;;;5080417;28;20089;-74
2023/01/10 08:57:34;;;;;;;5.25;0.85;;;6.60;99.90;;;;;;5078227;28;20485;-74
2023/01/10 09:00:00;;;;;;;4.47;1.45;;;6.60;99.90;;;;;;5056421;28;20043;-74
2023/01/10 09:02:25;;;;;;;2.85;0.60;;;6.60;99.90;;;;;;5061512;28;20390;-74
2023/01/10 09:04:51;;;;;;;3.83;1.10;;;6.60;99.90;;;;;;5073689;28;20478;-73
2023/01/10 09:07:17;;;;;;;3.83;1.15;;;6.60;99.90;;;;;;5070983;28;20052;-74
2023/01/10 09:09:43;;;;;;;3.38;0.85;;;6.60;99.90;;;;;;5063107;28;20118;-74
2023/01/10 09:15:12;;;;;;;8.27;1.23;;;6.60;99.90;;;;;;5026438;28;20051;-74
2023/01/10 09:17:38;;;;;;;3.25;1.05;;;6.60;99.90;;;;;;5047888;28;20053;-74
2023/01/10 09:20:08;;;;;;;4.22;1.13;;;6.70;99.90;;;;;;5041386;28;20219;-74
2023/01/10 09:22:37;;;;;;;4.18;1.02;;;6.70;99.90;;;;;;5052178;28;20036;-74
2023/01/10 09:25:04;;;;;;;4.38;1.10;;;6.70;99.90;;;;;;5077931;28;20097;-74
2023/01/10 09:27:29;;;;;;;2.88;1.17;;;6.70;99.90;;;;;;5069335;28;20036;-74
2023/01/10 09:29:55;;;;;;;6.45;1.38;;;6.80;99.90;;;;;;5061564;28;20036;-74
2023/01/10 09:32:20;;;;;;;4.38;1.00;;;6.80;99.90;;;;;;5070744;28;20424;-74
2023/01/10 09:34:46;;;;;;;1.63;0.68;;;6.80;99.90;;;;;;5070674;28;20033;-74
2023/01/10 09:37:11;;;;;;;2.15;0.95;;;6.80;99.90;;;;;;5071566;28;20058;-74
2023/01/10 09:39:37;;;;;;;4.30;0.82;;;6.90;99.90;;;;;;5077898;28;20037;-74
2023/01/10 09:42:40;;;;;;;7.43;0.90;;;6.90;99.90;;;;;;5109834;28;20040;-74
2023/01/10 09:45:36;;;;;;;3.45;1.00;;;6.90;99.90;;;;;;5076858;28;20484;-74
2023/01/10 09:48:11;;;;;;;6.63;1.38;;;6.90;99.90;;;;;;5071618;28;20151;-74
2023/01/10 09:51:01;;;;;;;6.00;1.30;;;7.00;99.90;;;;;;5072346;28;20118;-74
2023/01/10 09:53:31;;;;;;;2.45;0.75;;;7.00;99.90;;;;;;5058898;28;20040;-74
2023/01/10 09:55:59;;;;;;;1.45;0.80;;;7.00;99.90;;;;;;5073381;28;21288;-74
2023/01/10 09:58:28;;;;;;;4.07;1.35;;;7.10;99.90;;;;;;5067352;28;20074;-74
2023/01/10 10:01:22;;;;;;;3.97;1.45;;;7.10;99.90;;;;;;5070344;28;20039;-74
2023/01/10 10:04:16;;;;;;;3.83;1.05;;;7.10;99.90;;;;;;5069268;28;20067;-74
2023/01/10 10:06:42;;;;;;;6.20;1.40;;;7.10;99.90;;;;;;5057627;28;20501;-74
2023/01/10 10:09:13;;;;;;;6.35;1.05;;;7.20;99.90;;;;;;5067399;28;20027;-74
2023/01/10 10:12:09;;;;;;;3.75;1.33;;;7.20;99.90;;;;;;5070497;28;20449;-74
2023/01/10 10:15:14;;;;;;;8.88;1.23;;;7.20;99.90;;;;;;5102856;28;20455;-74
2023/01/10 10:17:43;;;;;;;7.97;1.17;;;7.30;99.90;;;;;;5067093;28;20450;-74
2023/01/10 10:20:21;;;;;;;5.50;0.93;;;7.30;99.90;;;;;;5067319;28;20071;-74
2023/01/10 10:23:19;;;;;;;4.80;1.20;;;7.30;99.90;;;;;;5072580;28;20112;-74
2023/01/10 10:26:12;;;;;;;1.77;0.73;;;7.30;99.90;;;;;;5071464;28;20557;-74
2023/01/10 10:29:15;;;;;;;6.70;1.30;;;7.40;99.90;;;;;;5073846;28;20035;-74
2023/01/10 10:31:58;;;;;;;2.15;0.93;;;7.40;99.90;;;;;;5071123;28;20043;-74
2023/01/10 10:34:35;;;;;;;6.28;1.23;;;7.40;99.90;;;;;;5072934;28;20047;-74
2023/01/10 10:37:18;;;;;;;5.95;1.20;;;7.50;99.90;;;;;;5056319;28;20046;-74
2023/01/10 10:39:56;;;;;;;2.58;1.40;;;7.40;99.90;;;;;;5074256;28;20059;-74
2023/01/10 10:42:29;;;;;;;15.70;1.80;;;7.50;99.90;;;;;;5074417;28;20498;-74
2023/01/10 10:45:03;;;;;;;9.57;2.90;;;7.50;99.90;;;;;;5103657;27;20644;-74
2023/01/10 10:47:33;;;;;;;3.10;1.90;;;7.50;99.90;;;;;;5057338;28;20518;-74
2023/01/10 10:50:14;;;;;;;5.53;1.80;;;7.50;99.90;;;;;;5072646;28;20892;-75
2023/01/10 10:52:42;;;;;;;4.78;2.05;;;7.50;99.90;;;;;;5053249;28;20032;-75
2023/01/10 10:55:35;;;;;;;4.45;2.00;;;7.50;99.90;;;;;;5059573;28;20032;-74
2023/01/10 10:58:06;;;;;;;9.27;2.20;;;7.60;99.90;;;;;;5049190;28;20524;-74
2023/01/10 11:00:32;;;;;;;5.68;2.60;;;7.50;99.90;;;;;;5060301;28;20055;-74
2023/01/10 11:03:16;;;;;;;4.78;1.88;;;7.60;99.90;;;;;;5068034;28;20090;-74
2023/01/10 11:05:45;;;;;;;7.22;2.47;;;7.60;99.90;;;;;;5074727;28;20037;-74
2023/01/10 11:08:13;;;;;;;8.70;2.15;;;7.60;99.90;;;;;;5069992;28;20051;-74
2023/01/10 11:10:42;;;;;;;4.60;2.30;;;7.60;99.90;;;;;;5054508;28;20033;-74
2023/01/10 11:13:26;;;;;;;10.45;2.60;;;7.60;99.90;;;;;;5071653;28;20044;-74
2023/01/10 11:15:52;;;;;;;9.07;2.28;;;7.60;99.90;;;;;;5104394;27;20114;-74
2023/01/10 11:18:24;;;;;;;6.07;3.20;;;7.60;99.90;;;;;;5055503;28;20380;-75
2023/01/10 11:20:56;;;;;;;9.27;2.08;;;7.60;99.90;;;;;;5082667;28;20028;-74
2023/01/10 11:23:36;;;;;;;6.55;1.75;;;7.60;99.90;;;;;;5054198;28;20055;-75
2023/01/10 11:26:07;;;;;;;5.70;2.33;;;7.60;99.90;;;;;;5070145;28;20545;-75
2023/01/10 11:28:33;;;;;;;7.18;1.88;;;7.60;99.90;;;;;;5054365;28;20037;-75
2023/01/10 11:30:59;;;;;;;3.25;1.50;;;7.60;99.90;;;;;;5048660;28;20174;-74
2023/01/10 11:33:29;;;;;;;6.30;2.00;;;7.60;99.90;;;;;;5066601;28;20044;-74
2023/01/10 11:36:00;;;;;;;9.27;2.22;;;7.70;99.90;;;;;;5069148;28;20098;-75
2023/01/10 11:38:29;;;;;;;7.25;1.60;;;7.70;99.90;;;;;;5067612;28;20047;-74
2023/01/10 11:40:56;;;;;;;9.98;2.65;;;7.70;99.90;;;;;;5059933;28;20093;-74
2023/01/10 11:43:51;;;;;;;8.77;2.22;;;7.70;99.90;;;;;;5078618;28;20385;-75
2023/01/10 11:46:20;;;;;;;5.93;1.40;;;7.70;99.90;;;;;;5061892;28;20047;-75
2023/01/10 11:49:05;;;;;;;7.50;1.48;;;7.70;99.90;;;;;;5072165;28;20135;-75
2023/01/10 11:51:38;;;;;;;3.83;1.58;;;7.70;99.90;;;;;;5072451;28;20450;-75
2023/01/10 11:54:14;;;;;;;3.95;1.20;;;7.60;99.90;;;;;;5059629;28;20036;-74
2023/01/10 11:56:42;;;;;;;4.05;2.00;;;7.60;99.90;;;;;;5054120;28;20033;-74
2023/01/10 11:59:15;;;;;;;3.25;1.35;;;7.70;99.90;;;;;;5067971;28;20032;-75
2023/01/10 12:01:54;;;;;;;6.60;1.30;;;7.70;99.90;;;;;;5073854;28;20039;-75
2023/01/10 12:04:21;;;;;;;6.15;1.63;;;7.70;99.90;;;;;;5056805;28;20058;-75
2023/01/10 12:06:51;;;;;;;7.40;1.30;;;7.70;99.90;;;;;;5067064;28;20079;-73
2023/01/10 12:09:54;;;;;;;3.30;1.10;;;7.70;99.90;;;;;;5054574;28;20040;-74
2023/01/10 12:12:29;;;;;;;2.58;1.08;;;7.70;99.90;;;;;;5070929;28;20504;-74
2023/01/10 12:14:57;;;;;;;4.40;1.75;;;7.70;99.90;;;;;;5074927;28;20500;-74
2023/01/10 12:17:27;;;;;;;7.50;1.55;;;7.70;99.90;;;;;;5074006;28;20052;-74
2023/01/10 12:19:57;;;;;;;5.55;1.55;;;7.70;99.90;;;;;;5070508;28;20112;-74
2023/01/10 12:22:39;;;;;;;10.27;1.80;;;7.70;99.90;;;;;;5057233;28;20032;-74
2023/01/10 12:25:19;;;;;;;5.10;1.25;;;7.70;99.90;;;;;;5067074;28;20387;-74
2023/01/10 12:27:49;;;;;;;3.95;1.50;;;7.70;99.90;;;;;;5073670;28;20036;-74
2023/01/10 12:30:48;;;;;;;5.75;1.85;;;7.70;99.90;;;;;;5066727;28;20094;-74
2023/01/10 12:33:34;;;;;;;4.50;1.67;;;7.70;99.90;;;;;;5069585;28;20040;-74
2023/01/10 12:36:19;;;;;;;3.25;1.60;;;7.70;99.90;;;;;;5077668;28;20529;-74
2023/01/10 12:39:03;;;;;;;3.67;1.27;;;7.70;99.90;;;;;;5052982;28;20037;-74
2023/01/10 12:44:31;;;;;;;4.40;1.55;;;7.60;99.90;;;;;;5067271;28;20178;-74
2023/01/10 12:47:11;;;;;;;3.33;1.50;;;7.60;99.90;;;;;;5072034;28;20393;-74
2023/01/10 12:49:58;;;;;;;4.00;1.90;;;7.60;99.90;;;;;;5080758;28;20051;-75
2023/01/10 12:52:32;;;;;;;2.80;1.27;;;7.50;99.90;;;;;;5079348;28;22420;-74
2023/01/10 12:54:59;;;;;;;3.38;1.00;;;7.60;99.90;;;;;;5100156;27;20486;-74
2023/01/10 12:57:32;;;;;;;4.47;1.27;;;7.50;99.90;;;;;;5048806;28;20086;-75
2023/01/10 13:00:02;;;;;;;4.47;1.10;;;7.60;99.90;;;;;;5066976;28;20052;-75
2023/01/10 13:02:38;;;;;;;6.70;1.42;;;7.60;99.90;;;;;;5068427;28;20085;-74
2023/01/10 13:05:05;;;;;;;3.92;1.40;;;7.50;99.90;;;;;;5068264;28;20040;-75
2023/01/10 13:07:34;;;;;;;5.28;1.80;;;7.60;99.90;;;;;;5067838;28;20059;-75
2023/01/10 13:10:04;;;;;;;2.63;1.20;;;7.50;99.90;;;;;;5051524;28;20036;-75
2023/01/10 13:12:39;;;;;;;4.88;1.30;;;7.50;99.90;;;;;;5069131;28;20036;-75
2023/01/10 13:15:23;;;;;;;3.45;1.20;;;7.50;99.90;;;;;;5068232;28;20100;-75
2023/01/10 13:17:53;;;;;;;3.50;1.52;;;7.50;99.90;;;;;;5058258;28;20044;-75
2023/01/10 13:20:22;;;;;;;3.25;1.08;;;7.50;99.90;;;;;;5081288;28;20460;-75
2023/01/10 13:22:51;;;;;;;3.17;1.00;;;7.40;99.90;;;;;;5068436;28;20047;-75
2023/01/10 13:25:34;;;;;;;2.28;0.85;;;7.50;99.90;;;;;;5087342;28;20127;-74
2023/01/10 13:28:15;;;;;;;5.13;1.00;;;7.40;99.90;;;;;;5088081;28;20044;-75
2023/01/10 13:30:41;;;;;;;2.83;1.15;;;7.40;99.90;;;;;;5079066;28;20044;-75
2023/01/10 13:33:20;;;;;;;7.32;1.63;;;7.40;99.90;;;;;;5067248;28;20512;-75